Angostura, New Mexico
Current Conditions -  °F | °C
As of 5:15 PM on Sunday 25 Jan 2015 (Local Time) from KSKX Reporting Station
Clear Clear  
Wind Chill: 37°   Ceiling: Unl
Heat Index: 43°   Visibility: 10mi
Dew Point: 25°   Wind: 9mph
Humidity: 49%   Direction: 320°NW
Pressure: 30.28"   Gusts: NA
Location:  36.1892°N, 105.688°W
Report Text: KSKX 260015Z AUTO 32008KT 10SM CLR 06/M04 A3028 RMK AO1
Loading
Personal Weather Stations






























Interactive Weather Map New forecast layout! Learn more

10-Day Weather Forecast

Advertisements
Track Severe Weather on mobile